createdAt,value
2019-03-17T13:37:29.193Z,48.32
2019-03-17T13:38:12.301Z,47.31
2019-03-17T13:39:12.249Z,47.31
2019-03-17T13:44:12.916Z,47.22
2019-03-17T13:45:12.891Z,47.11
2019-03-17T13:46:12.875Z,47.11
2019-03-17T15:14:07.457Z,49.08
2019-03-17T15:15:07.408Z,48.28
2019-03-17T15:16:07.359Z,48.49
2019-03-17T15:17:07.311Z,49.08
2019-03-17T15:18:07.265Z,48.79
2019-03-17T15:19:07.197Z,48.69
2019-03-17T15:20:07.127Z,47.58
2019-03-17T15:21:07.058Z,48.49
2019-03-17T15:22:06.981Z,48.58
2019-03-17T15:23:06.909Z,48.89
2019-03-17T15:24:06.818Z,48.46
2019-03-17T15:25:06.732Z,47.96
2019-03-17T15:26:06.646Z,47.36
2019-03-17T15:27:06.561Z,48.16
2019-03-17T15:28:06.486Z,47.46
2019-03-17T15:29:06.398Z,48.16
2019-03-17T15:30:06.298Z,48.16
2019-03-17T15:31:12.022Z,48.49
2019-03-17T15:32:07.096Z,49.19
2019-03-17T15:33:06.016Z,48.99
2019-03-17T15:34:05.901Z,48.69
2019-03-17T15:35:05.828Z,48.69
2019-03-17T15:36:05.689Z,48.79
2019-03-17T15:37:05.580Z,48.51
2019-03-17T15:38:05.487Z,48.41
2019-03-17T15:39:05.368Z,48.81
2019-03-17T15:40:05.262Z,48.69
2019-03-17T15:41:17.609Z,48.69
2019-03-17T15:42:06.034Z,48.28
2019-03-17T15:43:04.951Z,48.61
2019-03-17T15:44:04.816Z,48.28
2019-03-17T15:45:04.712Z,48.61
2019-03-17T15:46:04.615Z,48.51
2019-03-17T15:46:19.695Z,88.51
2019-03-17T15:47:04.509Z,48.91
2019-03-17T15:47:13.889Z,88.72
2019-03-17T15:48:04.526Z,48.81
2019-03-17T15:48:13.880Z,88.20
2019-03-17T15:48:31.703Z,49.08
2019-03-17T15:49:13.857Z,88.31
2019-03-17T15:50:13.876Z,87.48
2019-03-17T15:51:20.460Z,87.48
2019-03-17T15:52:14.836Z,86.60
2019-03-17T15:53:13.843Z,87.99
2019-03-17T15:54:13.804Z,87.48
2019-03-17T15:55:13.792Z,88.35
2019-03-17T15:56:13.804Z,87.11
2019-03-17T15:57:13.796Z,87.21
2019-03-17T15:58:13.768Z,88.10
2019-03-17T15:59:13.781Z,88.45
2019-03-17T16:00:24.256Z,87.63
2019-03-17T16:01:14.726Z,87.93
2019-03-17T16:02:13.732Z,87.98
2019-03-17T16:03:13.707Z,87.11
2019-03-17T16:04:13.708Z,87.56
2019-03-17T16:05:13.706Z,88.18
2019-03-17T16:06:13.677Z,87.26
2019-03-17T16:07:13.684Z,87.77
2019-03-17T16:08:13.655Z,87.71
2019-03-17T16:09:13.672Z,87.35
2019-03-17T16:09:21.812Z,48.71
2019-03-17T16:10:13.633Z,87.81
2019-03-17T16:11:13.621Z,86.88
2019-03-17T16:12:13.611Z,87.60
2019-03-17T16:13:13.603Z,87.71
2019-03-17T16:14:13.641Z,87.50
2019-03-17T16:15:13.585Z,88.43
2019-03-17T16:16:13.588Z,88.43
2019-03-17T16:17:13.574Z,87.29
2019-03-17T16:18:13.544Z,87.08
2019-03-17T16:19:13.553Z,87.71
2019-03-17T16:20:13.522Z,87.40
2019-03-17T16:21:13.545Z,87.60
2019-03-17T16:22:13.503Z,88.53
2019-03-17T16:23:13.494Z,87.60
2019-03-17T16:24:13.491Z,88.53
2019-03-17T16:25:13.472Z,88.64
2019-03-17T16:26:13.469Z,89.29
2019-03-17T16:27:15.585Z,88.64
2019-03-17T16:28:13.438Z,88.78
2019-03-17T16:29:13.469Z,89.71
2019-03-17T16:30:13.427Z,88.68
2019-03-17T16:31:13.433Z,89.09
2019-03-17T16:32:13.419Z,89.29
2019-03-17T16:33:13.384Z,89.81
2019-03-17T16:34:13.415Z,88.57
2019-03-17T16:35:13.374Z,89.40
2019-03-17T16:36:13.362Z,88.57
2019-03-17T16:37:13.369Z,88.98
2019-03-17T16:38:13.327Z,89.81
2019-03-17T16:39:13.341Z,89.54
2019-03-17T16:40:13.392Z,88.78
2019-03-17T16:41:13.330Z,89.50
2019-03-17T16:42:13.304Z,89.61
2019-03-17T16:43:13.301Z,89.61
2019-03-17T16:44:13.288Z,89.71
2019-03-17T16:45:13.272Z,89.09
2019-03-17T16:46:13.243Z,88.57
2019-03-17T16:47:13.255Z,88.68
2019-03-17T16:48:13.222Z,88.68
2019-03-17T16:49:13.224Z,87.85
2019-03-17T16:50:13.199Z,89.81
2019-03-17T16:51:13.201Z,89.13
2019-03-17T16:52:13.178Z,88.68
2019-03-17T16:53:13.199Z,88.89
2019-03-17T16:54:13.174Z,89.71
2019-03-17T16:55:13.148Z,89.50
2019-03-17T16:56:13.138Z,89.75
2019-03-17T16:57:13.147Z,89.44
2019-03-17T16:58:13.119Z,89.75
2019-03-17T16:59:13.195Z,89.86
2019-03-17T17:00:13.091Z,89.86
2019-03-17T17:01:13.155Z,90.16
2019-03-17T17:02:13.083Z,89.09
2019-03-17T17:03:13.069Z,89.13
2019-03-17T17:04:13.077Z,88.89
2019-03-17T17:05:13.036Z,89.03
2019-03-17T17:06:13.032Z,88.57
2019-03-17T17:07:13.016Z,87.99
2019-03-17T17:08:13.090Z,88.78
2019-03-17T17:09:13.137Z,88.37
2019-03-17T17:10:13.005Z,88.47
2019-03-17T17:11:13.057Z,87.95
2019-03-17T17:12:12.960Z,87.95
2019-03-17T17:13:12.952Z,88.57
2019-03-17T17:14:12.979Z,89.61
2019-03-17T17:15:12.952Z,89.54
2019-03-17T17:16:12.928Z,89.65
2019-03-17T17:17:12.907Z,89.81
2019-03-17T17:18:12.898Z,89.95
2019-03-17T17:19:12.891Z,89.23
2019-03-17T17:20:12.917Z,89.03
2019-03-17T17:21:12.875Z,88.37
2019-03-17T17:22:12.868Z,88.26
2019-03-17T17:23:12.857Z,87.95
2019-03-17T17:24:12.832Z,88.92
2019-03-17T17:25:12.858Z,88.57
2019-03-17T17:26:12.846Z,88.47
2019-03-17T17:27:12.799Z,88.51
2019-03-17T17:28:12.785Z,88.16
2019-03-17T17:29:12.780Z,87.99
2019-03-17T17:30:12.792Z,88.51
2019-03-17T17:31:12.760Z,88.20
2019-03-17T17:32:12.755Z,88.31
2019-03-17T17:33:12.731Z,89.13
2019-03-17T17:34:12.725Z,88.51
2019-03-17T17:35:12.740Z,87.74
2019-03-17T17:36:12.702Z,87.79
2019-03-17T17:37:12.714Z,88.41
2019-03-17T17:38:12.697Z,88.31
2019-03-17T17:39:12.676Z,88.37
2019-03-17T17:40:12.689Z,87.68
2019-03-17T17:41:12.647Z,88.61
2019-03-17T17:42:12.647Z,88.31
2019-03-17T17:43:12.898Z,87.68
2019-03-17T17:44:12.622Z,87.99
2019-03-17T17:45:12.642Z,87.65
2019-03-17T17:46:12.631Z,88.51
2019-03-17T17:47:12.651Z,88.61
2019-03-17T17:48:12.615Z,87.79
2019-03-17T17:49:12.629Z,87.79
2019-03-17T17:50:12.563Z,87.89
2019-03-17T17:51:12.542Z,87.89
2019-03-17T17:52:12.539Z,87.68
2019-03-17T17:53:12.525Z,88.71
2019-03-17T17:54:12.533Z,88.61
2019-03-17T17:55:12.509Z,88.51
2019-03-17T17:56:12.485Z,89.13
2019-03-17T17:57:12.493Z,89.65
2019-03-17T17:58:12.474Z,89.38
2019-03-17T17:59:12.485Z,90.00
2019-03-17T18:00:12.482Z,89.75
2019-03-17T18:01:12.431Z,89.38
2019-03-17T18:02:12.442Z,89.38
2019-03-17T18:03:12.411Z,89.44
2019-03-17T18:04:12.413Z,89.69
2019-03-17T18:05:12.394Z,89.03
2019-03-17T18:06:12.403Z,88.71
2019-03-17T18:07:12.368Z,88.41
2019-03-17T18:08:12.364Z,87.68
2019-03-17T18:09:12.357Z,87.79
2019-03-17T18:10:12.353Z,87.58
2019-03-17T18:11:12.354Z,87.89
2019-03-17T18:12:20.820Z,87.79
2019-03-17T18:13:13.323Z,87.27
2019-03-17T18:14:12.362Z,87.48
2019-03-17T18:15:12.288Z,86.92
2019-03-17T18:16:12.324Z,86.51
2019-03-17T18:17:12.290Z,86.51
2019-03-17T18:18:12.264Z,86.10
2019-03-17T18:19:12.240Z,86.20
2019-03-17T18:20:12.240Z,85.54
2019-03-17T18:21:12.286Z,85.75
2019-03-17T18:22:12.216Z,85.54
2019-03-17T18:23:17.717Z,85.95
2019-03-17T18:24:13.192Z,85.58
2019-03-17T18:25:12.185Z,85.85
2019-03-17T18:26:12.195Z,86.26
2019-03-17T18:27:12.172Z,85.47
2019-03-17T18:28:12.170Z,85.54
2019-03-17T18:29:12.150Z,85.85
2019-03-17T18:30:12.152Z,85.54
2019-03-17T18:31:12.176Z,84.92
2019-03-17T18:32:12.115Z,85.33
2019-03-17T18:33:12.132Z,86.30
2019-03-17T18:34:12.077Z,86.16
2019-03-17T18:35:12.145Z,86.57
2019-03-17T18:36:12.117Z,87.44
2019-03-17T18:37:12.060Z,87.34
2019-03-17T18:38:12.071Z,87.44
2019-03-17T18:39:12.044Z,87.74
2019-03-17T18:40:12.028Z,88.47
2019-03-17T18:41:12.050Z,87.95
2019-03-17T18:42:12.010Z,88.47
2019-03-17T18:43:11.983Z,88.98
2019-03-17T18:44:11.988Z,89.34
2019-03-17T18:45:11.959Z,89.54
2019-03-17T18:46:11.964Z,90.68
2019-03-17T18:47:11.964Z,91.36
2019-03-17T18:48:11.941Z,92.44
2019-03-17T18:49:11.928Z,92.54
2019-03-17T18:50:19.961Z,92.64
2019-03-17T18:51:12.908Z,92.74
2019-03-17T18:52:11.884Z,92.79
2019-03-17T18:53:11.873Z,93.20
2019-03-17T18:54:11.866Z,94.23
2019-03-17T18:55:11.858Z,94.34
2019-03-17T18:56:11.892Z,95.42
2019-03-17T18:57:11.830Z,95.42
2019-03-17T18:58:11.827Z,96.45
2019-03-17T18:59:11.812Z,96.14
2019-03-17T19:00:11.808Z,95.21
2019-03-17T19:01:11.803Z,94.94
2019-03-17T19:02:11.791Z,94.89
2019-03-17T19:03:11.771Z,95.71
2019-03-17T19:04:11.768Z,94.57
2019-03-17T19:05:11.745Z,95.03
2019-03-17T19:06:11.737Z,94.51
2019-03-17T19:07:11.740Z,95.24
2019-03-17T19:08:11.718Z,95.86
2019-03-17T19:09:11.707Z,96.58
2019-03-17T19:10:11.709Z,97.04
2019-03-17T19:11:11.686Z,94.20
2019-03-17T19:12:11.690Z,93.06
2019-03-17T19:13:11.671Z,93.16
2019-03-17T19:14:11.656Z,93.27
2019-03-17T19:15:11.665Z,93.52
2019-03-17T19:16:11.642Z,94.62
2019-03-17T19:17:11.638Z,94.76
2019-03-17T19:18:11.615Z,95.14
2019-03-17T19:19:11.597Z,94.97
2019-03-17T19:20:11.604Z,94.87
2019-03-17T19:21:11.578Z,93.31
2019-03-17T19:22:11.577Z,93.31
2019-03-17T19:23:11.557Z,93.10
2019-03-17T19:24:11.554Z,92.59
2019-03-17T19:25:11.542Z,92.49
2019-03-17T19:26:11.526Z,92.28
2019-03-17T19:27:11.526Z,91.45
2019-03-17T19:28:11.504Z,92.59
2019-03-17T19:29:11.526Z,92.59
2019-03-17T19:30:11.483Z,93.10
2019-03-17T19:31:11.471Z,94.24
2019-03-17T19:32:11.491Z,94.70
2019-03-17T19:33:11.456Z,95.22
2019-03-17T19:34:11.451Z,94.91
2019-03-17T19:35:11.432Z,95.01
2019-03-17T19:36:11.419Z,94.66
2019-03-17T19:37:11.424Z,94.56
2019-03-17T19:38:11.414Z,94.35
2019-03-17T19:39:11.387Z,94.81
2019-03-17T19:40:11.375Z,94.91
2019-03-17T19:41:11.375Z,95.28
2019-03-17T19:42:11.363Z,95.53
2019-03-17T19:43:11.348Z,95.12
2019-03-17T19:44:11.335Z,95.12
2019-03-17T19:45:11.326Z,95.43
2019-03-17T19:46:11.310Z,95.12
2019-03-17T19:47:11.319Z,95.53
2019-03-17T19:48:11.299Z,95.64
2019-03-17T19:49:11.291Z,95.74
2019-03-17T19:50:11.272Z,96.21
2019-03-17T19:51:11.262Z,96.36
2019-03-17T19:52:11.270Z,96.67
2019-03-17T19:53:11.247Z,96.47
2019-03-17T19:54:11.260Z,96.36
2019-03-17T19:55:11.219Z,96.88
2019-03-17T19:56:11.209Z,96.52
2019-03-17T19:57:11.212Z,96.78
2019-03-17T19:58:11.195Z,96.83
2019-03-17T19:59:11.170Z,96.94
2019-03-17T20:00:11.374Z,96.73
2019-03-17T20:01:11.152Z,96.73
2019-03-17T20:02:11.152Z,96.62
2019-03-17T20:03:11.133Z,97.09
2019-03-17T20:04:11.120Z,97.71
2019-03-17T20:05:11.109Z,97.81
2019-03-17T20:06:11.098Z,97.71
2019-03-17T20:07:11.105Z,97.50
2019-03-17T20:08:11.093Z,97.25
2019-03-17T20:09:11.068Z,96.83
2019-03-17T20:10:11.055Z,96.83
2019-03-17T20:11:11.068Z,96.83
2019-03-17T20:12:11.060Z,96.94
2019-03-17T20:13:12.201Z,96.69
2019-03-17T20:14:11.016Z,96.17
2019-03-17T20:15:11.001Z,95.44
2019-03-17T20:16:10.998Z,94.68
2019-03-17T20:17:10.991Z,94.68
2019-03-17T20:18:11.079Z,94.68
2019-03-17T20:19:10.960Z,94.68
2019-03-17T20:20:10.957Z,94.37
2019-03-17T20:21:10.938Z,94.16
2019-03-17T20:22:10.932Z,94.06
2019-03-17T20:23:10.929Z,94.16
2019-03-17T20:24:10.915Z,94.16
2019-03-17T20:25:10.899Z,93.85
2019-03-17T20:26:10.901Z,94.16
2019-03-17T20:27:10.925Z,94.06
2019-03-17T20:28:10.876Z,94.06
2019-03-17T20:29:10.860Z,94.57
2019-03-17T20:30:10.846Z,94.26
2019-03-17T20:31:10.830Z,94.37
2019-03-17T20:32:10.826Z,94.78
2019-03-17T20:33:10.826Z,94.82
2019-03-17T20:34:10.798Z,94.82
2019-03-17T20:35:10.788Z,94.82
2019-03-17T20:36:10.778Z,94.93
2019-03-17T20:37:10.774Z,94.68
2019-03-17T20:38:10.766Z,94.62
2019-03-17T20:39:10.764Z,94.57
2019-03-17T20:40:10.758Z,94.26
2019-03-17T20:41:10.733Z,94.26
2019-03-17T20:42:10.714Z,93.29
2019-03-17T20:43:24.038Z,93.95
2019-03-17T20:44:11.703Z,93.39
2019-03-17T20:45:10.686Z,93.29
2019-03-17T20:46:10.689Z,93.85
2019-03-17T20:47:10.667Z,92.61
2019-03-17T20:48:10.773Z,92.87
2019-03-17T20:49:10.670Z,93.18
2019-03-17T20:50:10.626Z,93.39
2019-03-17T20:51:10.616Z,93.43
2019-03-17T20:52:10.614Z,93.54
2019-03-17T20:53:10.608Z,93.85
2019-03-17T20:54:10.584Z,93.74
2019-03-17T20:55:10.579Z,93.95
2019-03-17T20:56:10.569Z,94.16
2019-03-17T20:57:10.556Z,94.47
2019-03-17T20:58:10.553Z,94.26
2019-03-17T20:59:10.538Z,93.85
2019-03-17T21:00:10.526Z,93.95
2019-03-17T21:01:10.513Z,93.33
2019-03-17T21:02:10.530Z,93.02
2019-03-17T21:03:10.499Z,92.91
2019-03-17T21:04:10.479Z,93.33
2019-03-17T21:05:10.474Z,92.91
2019-03-17T21:06:10.471Z,93.12
2019-03-17T21:07:10.458Z,93.12
2019-03-17T21:08:10.476Z,92.81
2019-03-17T21:09:10.425Z,92.81
2019-03-17T21:10:10.423Z,93.54
2019-03-17T21:11:10.402Z,93.37
2019-03-17T21:12:10.394Z,93.58
2019-03-17T21:13:10.401Z,94.10
2019-03-17T21:14:10.373Z,94.14
2019-03-17T21:15:10.370Z,94.04
2019-03-17T21:16:10.359Z,94.24
2019-03-17T21:17:10.359Z,94.45
2019-03-17T21:18:10.352Z,94.81
2019-03-17T21:19:10.350Z,95.16
2019-03-17T21:20:10.327Z,95.68
2019-03-17T21:21:10.304Z,95.68
2019-03-17T21:22:10.298Z,95.62
2019-03-17T21:23:10.312Z,95.41
2019-03-17T21:24:10.281Z,95.83
2019-03-17T21:25:10.255Z,96.50
2019-03-17T21:26:10.245Z,96.70
2019-03-17T21:27:10.246Z,96.23
2019-03-17T21:28:10.251Z,96.54
2019-03-17T21:29:10.215Z,96.79
2019-03-17T21:30:10.218Z,97.20
2019-03-17T21:31:10.192Z,97.41
2019-03-17T21:32:10.249Z,97.10
2019-03-17T21:33:10.178Z,98.08
2019-03-17T21:34:10.168Z,98.19
2019-03-17T21:35:10.155Z,97.98
2019-03-17T21:36:10.154Z,98.08
2019-03-17T21:37:10.126Z,98.71
2019-03-17T21:38:10.122Z,98.81
2019-03-17T21:39:10.109Z,98.65
2019-03-17T21:40:10.095Z,98.85
2019-03-17T21:41:10.093Z,99.16
2019-03-17T21:42:10.074Z,99.48
2019-03-17T21:43:10.072Z,99.48
2019-03-17T21:44:10.049Z,99.58
2019-03-17T21:45:10.043Z,99.58
2019-03-17T21:46:10.043Z,99.63
2019-03-17T21:47:10.031Z,99.90
2019-03-17T21:48:10.018Z,99.95
2019-03-17T21:49:10.007Z,99.95
2019-03-17T21:50:09.996Z,99.99
2019-03-17T21:51:09.974Z,99.90
2019-03-17T21:52:09.975Z,99.99
2019-03-17T21:53:09.965Z,99.68
2019-03-17T21:54:10.204Z,99.99
2019-03-17T21:55:09.942Z,99.90
2019-03-17T21:56:09.947Z,99.73
2019-03-17T21:57:10.087Z,99.73
2019-03-17T21:58:09.914Z,99.73
2019-03-17T21:59:10.007Z,99.99
2019-03-17T22:00:09.895Z,99.67
2019-03-17T22:01:09.871Z,99.99
2019-03-17T22:02:13.202Z,99.84
2019-03-17T22:03:09.861Z,99.99
2019-03-17T22:04:09.896Z,99.99
2019-03-17T22:05:09.830Z,99.99
2019-03-17T22:06:09.830Z,99.99
2019-03-17T22:07:09.839Z,99.94
2019-03-17T22:08:09.819Z,99.99
2019-03-17T22:09:09.831Z,99.99
2019-03-17T22:10:09.848Z,99.99
2019-03-17T22:11:09.798Z,99.99
2019-03-17T22:12:09.799Z,99.99
2019-03-17T22:13:09.739Z,99.99
2019-03-17T22:14:12.329Z,99.99
2019-03-17T22:15:09.723Z,99.99
2019-03-17T22:16:09.725Z,99.99
2019-03-17T22:17:09.706Z,99.99
2019-03-17T22:18:10.303Z,99.99
2019-03-17T22:19:09.685Z,99.99
2019-03-17T22:20:09.673Z,99.99
2019-03-17T22:21:09.660Z,99.99
2019-03-17T22:22:09.871Z,99.99
2019-03-17T22:23:09.652Z,99.99
2019-03-17T22:24:09.641Z,99.99
2019-03-17T22:25:09.612Z,99.99
2019-03-17T22:26:09.602Z,99.99
2019-03-17T22:27:09.601Z,99.99
2019-03-17T22:28:09.579Z,99.99
2019-03-17T22:29:09.594Z,99.99
2019-03-17T22:30:09.565Z,99.99
2019-03-17T22:31:09.547Z,99.99
2019-03-17T22:32:09.535Z,99.99
2019-03-17T22:33:09.531Z,99.99
2019-03-17T22:34:09.537Z,99.99
2019-03-17T22:35:09.507Z,99.99
2019-03-17T22:36:09.510Z,99.99
2019-03-17T22:37:09.487Z,99.99
2019-03-17T22:38:09.472Z,99.99
2019-03-17T22:39:11.407Z,99.99
2019-03-17T22:40:09.458Z,99.99
2019-03-17T22:41:09.464Z,99.99
2019-03-17T22:42:09.440Z,99.28
2019-03-17T22:43:09.425Z,99.49
2019-03-17T22:44:09.419Z,98.51
2019-03-17T22:45:09.411Z,97.85
2019-03-17T22:46:09.426Z,96.81
2019-03-17T22:47:09.396Z,95.67
2019-03-17T22:48:09.369Z,94.73
2019-03-17T22:49:09.398Z,94.32
2019-03-17T22:50:09.347Z,93.75
2019-03-17T22:51:09.337Z,93.13
2019-03-17T22:52:09.324Z,92.93
2019-03-17T22:53:09.313Z,92.93
2019-03-17T22:54:09.327Z,92.93
2019-03-17T22:55:09.292Z,92.57
2019-03-17T22:56:09.284Z,91.64
2019-03-17T22:57:09.277Z,91.74
2019-03-17T22:58:09.259Z,91.64
2019-03-17T22:59:09.287Z,91.18
2019-03-17T23:00:09.238Z,91.43
2019-03-17T23:01:09.229Z,90.91
2019-03-17T23:02:09.220Z,90.60
2019-03-17T23:03:09.217Z,90.60
2019-03-17T23:04:09.225Z,90.91
2019-03-17T23:05:09.199Z,91.12
2019-03-17T23:06:09.174Z,90.81
2019-03-17T23:07:09.164Z,90.60
2019-03-17T23:08:09.155Z,90.19
2019-03-17T23:09:09.199Z,89.73
2019-03-17T23:10:09.132Z,89.11
2019-03-17T23:11:09.140Z,89.62
2019-03-17T23:12:09.116Z,89.42
2019-03-17T23:13:09.124Z,89.00
2019-03-17T23:14:09.114Z,89.31
2019-03-17T23:15:09.088Z,88.79
2019-03-17T23:16:09.067Z,88.94
2019-03-17T23:17:09.062Z,88.48
2019-03-17T23:18:09.045Z,88.90
2019-03-17T23:19:09.055Z,88.69
2019-03-17T23:20:09.035Z,88.18
2019-03-17T23:21:09.021Z,88.79
2019-03-17T23:22:09.012Z,88.73
2019-03-17T23:23:08.990Z,88.42
2019-03-17T23:24:08.981Z,89.15
2019-03-17T23:25:08.979Z,89.77
2019-03-17T23:26:08.980Z,89.98
2019-03-17T23:27:08.949Z,89.87
2019-03-17T23:28:08.942Z,89.98
2019-03-17T23:29:08.936Z,89.98
2019-03-17T23:30:08.934Z,89.61
2019-03-17T23:31:08.903Z,89.77
2019-03-17T23:32:08.893Z,89.87
2019-03-17T23:33:08.883Z,90.08
2019-03-17T23:34:08.872Z,89.56
2019-03-17T23:35:08.883Z,89.77
2019-03-17T23:36:08.856Z,90.33
2019-03-17T23:37:08.838Z,90.29
2019-03-17T23:38:08.840Z,90.08
2019-03-17T23:39:08.817Z,90.19
2019-03-17T23:40:09.824Z,89.87
2019-03-17T23:41:08.800Z,89.87
2019-03-17T23:42:08.794Z,89.25
2019-03-17T23:43:08.775Z,89.15
2019-03-17T23:44:08.774Z,89.67
2019-03-17T23:45:08.765Z,89.46
2019-03-17T23:46:08.748Z,89.67
2019-03-17T23:47:08.731Z,89.67
2019-03-17T23:48:08.739Z,89.46
2019-03-17T23:49:08.710Z,90.33
2019-03-17T23:50:08.711Z,89.67
2019-03-17T23:51:08.696Z,89.81
2019-03-17T23:52:08.681Z,89.40
2019-03-17T23:53:08.668Z,89.29
2019-03-17T23:54:08.678Z,89.92
2019-03-17T23:55:08.666Z,90.02
2019-03-17T23:56:08.639Z,89.81
2019-03-17T23:57:08.633Z,90.27
2019-03-17T23:58:08.621Z,90.23
2019-03-17T23:59:08.606Z,90.58
